Observations for Trim Patrick St
| Time | AQI | Temp °C | Hum % | Pres Pa | CO μg/m³ | H₂S μg/m³ | NO μg/m³ | NO₂ μg/m³ | O₃ μg/m³ | SO₂ μg/m³ | PM1 μg/m³ | PM2.5 μg/m³ | PM10 μg/m³ |
|---|---|---|---|---|---|---|---|---|---|---|---|---|---|
| Thursday 6 August 2026 | |||||||||||||
| 16:44 | 2 | 26.6 | 35 | 69,002 | 0 | 3.58 | 1.6 | 10.69 | 75.96 | 10.85 | 2 | 8.18 | 9 |
| 16:43 | 2 | 26.7 | 36 | 69,010 | 0 | 7.43 | 1.74 | 10.88 | 92.82 | 11.65 | 2 | 7.33 | 8.06 |
| 16:42 | 2 | 26.8 | 34 | 69,021 | 0 | 7.29 | 1.51 | 13.15 | 99.52 | 11.56 | 2 | 7.41 | 8.15 |
| 16:41 | 2 | 26.9 | 35 | 69,002 | 0 | 9.93 | 1.56 | 10.02 | 86.93 | 12.3 | 2 | 8.17 | 8.99 |
| 16:40 | 2 | 27 | 34 | 69,012 | 0 | 6.56 | 1.34 | 13.05 | 93.43 | 11.37 | 2 | 7.45 | 8.19 |
| 16:39 | 2 | 27.2 | 34 | 69,027 | 0 | 3.67 | 1.29 | 10.78 | 95.99 | 12.66 | 2 | 7.44 | 8.19 |
| 16:38 | 2 | 27.3 | 33 | 69,045 | 0 | 0.99 | 1.3 | 10.17 | 78.13 | 11.9 | 2 | 8.27 | 9.09 |
| 16:37 | 2 | 27.4 | 33 | 69,037 | 0 | 0 | 1.65 | 10.1 | 73.51 | 11.99 | 2 | 8.28 | 9.11 |
| 16:36 | 2 | 27.5 | 34 | 69,049 | 0 | 1.72 | 1.56 | 10.06 | 80.71 | 12.95 | 2 | 7.41 | 8.15 |
| 16:34 | 2 | 27.7 | 33 | 69,055 | 0 | 0 | 1.66 | 9.26 | 74.07 | 12.12 | 2 | 7.46 | 8.21 |
| 16:33 | 2 | 27.8 | 33 | 69,069 | 0 | 0 | 1.66 | 9.31 | 71.46 | 11.71 | 2 | 8.3 | 9.13 |
| 16:32 | 2 | 28 | 33 | 69,061 | 0 | 0 | 1.53 | 10.49 | 75.1 | 12.36 | 2 | 7.48 | 8.23 |
| 16:31 | 2 | 28 | 33 | 69,082 | 0 | 0 | 1.6 | 10.55 | 75.86 | 12.45 | 2 | 7.48 | 8.23 |
| 16:30 | 2 | 28.2 | 33 | 69,072 | 0 | 0 | 1.48 | 12.7 | 92.38 | 12.59 | 2 | 7.47 | 8.21 |
| 16:29 | 2 | 28.3 | 32 | 69,090 | 0 | 0 | 1.49 | 11.23 | 77.45 | 12.53 | 2 | 8.32 | 9.15 |
| 16:28 | 2 | 28.4 | 33 | 69,084 | 0 | 0 | 1.4 | 10.8 | 74.96 | 12.24 | 2 | 7.46 | 8.21 |
| 16:25 | 2 | 28.5 | 33 | 69,120 | 0 | 0 | 1.39 | 11.2 | 69.28 | 12.42 | 2 | 7.46 | 8.21 |
| 16:24 | 2 | 28.6 | 33 | 69,118 | 0 | 0 | 1.39 | 16.85 | 72.36 | 11.56 | 2 | 8.3 | 9.13 |
| 16:23 | 2 | 28.6 | 32 | 69,118 | 0 | 0 | 1.4 | 11.3 | 71.43 | 11.88 | 2 | 7.54 | 8.29 |
| 16:22 | 2 | 28.7 | 32 | 69,116 | 0 | 0 | 1.42 | 12.68 | 84.9 | 12.16 | 2 | 7.54 | 8.3 |